sensor_id;sensor_type;location;lat;lon;timestamp;P1;durP1;ratioP1;P2;durP2;ratioP2
20482;SDS011;10400;53.198;6.592;2023-07-20T00:01:31;3.03;;;2.67;;
20482;SDS011;10400;53.198;6.592;2023-07-20T00:03:56;2.58;;;2.25;;
20482;SDS011;10400;53.198;6.592;2023-07-20T00:06:22;4.55;;;2.40;;
20482;SDS011;10400;53.198;6.592;2023-07-20T00:08:49;4.20;;;2.58;;
20482;SDS011;10400;53.198;6.592;2023-07-20T00:11:16;3.90;;;2.95;;
20482;SDS011;10400;53.198;6.592;2023-07-20T00:13:41;3.13;;;2.85;;
20482;SDS011;10400;53.198;6.592;2023-07-20T00:16:07;5.13;;;3.70;;
20482;SDS011;10400;53.198;6.592;2023-07-20T00:18:33;3.28;;;2.78;;
20482;SDS011;10400;53.198;6.592;2023-07-20T00:20:59;3.05;;;2.70;;
20482;SDS011;10400;53.198;6.592;2023-07-20T00:23:27;4.22;;;3.10;;
20482;SDS011;10400;53.198;6.592;2023-07-20T00:25:53;3.90;;;2.75;;
20482;SDS011;10400;53.198;6.592;2023-07-20T00:28:19;3.25;;;2.53;;
20482;SDS011;10400;53.198;6.592;2023-07-20T00:30:45;4.45;;;3.08;;
20482;SDS011;10400;53.198;6.592;2023-07-20T00:33:11;3.55;;;3.17;;
20482;SDS011;10400;53.198;6.592;2023-07-20T00:35:37;4.20;;;3.00;;
20482;SDS011;10400;53.198;6.592;2023-07-20T00:38:04;6.20;;;3.30;;
20482;SDS011;10400;53.198;6.592;2023-07-20T00:40:39;7.10;;;3.22;;
20482;SDS011;10400;53.198;6.592;2023-07-20T00:43:06;4.93;;;3.05;;
20482;SDS011;10400;53.198;6.592;2023-07-20T00:45:32;5.07;;;2.72;;
20482;SDS011;10400;53.198;6.592;2023-07-20T00:47:59;2.85;;;2.20;;
20482;SDS011;10400;53.198;6.592;2023-07-20T00:50:26;4.35;;;2.72;;
20482;SDS011;10400;53.198;6.592;2023-07-20T00:52:54;5.00;;;2.40;;
20482;SDS011;10400;53.198;6.592;2023-07-20T00:55:21;3.75;;;2.13;;
20482;SDS011;10400;53.198;6.592;2023-07-20T00:57:47;2.67;;;2.40;;
20482;SDS011;10400;53.198;6.592;2023-07-20T01:00:13;4.50;;;2.63;;
20482;SDS011;10400;53.198;6.592;2023-07-20T01:02:40;5.80;;;2.72;;
20482;SDS011;10400;53.198;6.592;2023-07-20T01:05:05;2.97;;;2.20;;
20482;SDS011;10400;53.198;6.592;2023-07-20T01:07:36;4.13;;;2.30;;
20482;SDS011;10400;53.198;6.592;2023-07-20T01:13:04;3.75;;;2.40;;
20482;SDS011;10400;53.198;6.592;2023-07-20T01:15:34;4.20;;;2.30;;
20482;SDS011;10400;53.198;6.592;2023-07-20T01:17:59;4.65;;;2.55;;
20482;SDS011;10400;53.198;6.592;2023-07-20T01:20:29;3.38;;;2.45;;
20482;SDS011;10400;53.198;6.592;2023-07-20T01:23:07;2.65;;;1.95;;
20482;SDS011;10400;53.198;6.592;2023-07-20T01:31:16;3.42;;;2.28;;
20482;SDS011;10400;53.198;6.592;2023-07-20T01:33:45;3.42;;;2.20;;
20482;SDS011;10400;53.198;6.592;2023-07-20T01:36:12;2.97;;;2.25;;
20482;SDS011;10400;53.198;6.592;2023-07-20T01:38:41;3.88;;;2.20;;
20482;SDS011;10400;53.198;6.592;2023-07-20T01:41:07;2.85;;;2.20;;
20482;SDS011;10400;53.198;6.592;2023-07-20T01:43:34;3.28;;;2.30;;
20482;SDS011;10400;53.198;6.592;2023-07-20T01:45:59;3.03;;;2.60;;
20482;SDS011;10400;53.198;6.592;2023-07-20T01:48:25;2.65;;;2.45;;
20482;SDS011;10400;53.198;6.592;2023-07-20T01:50:52;3.90;;;2.47;;
20482;SDS011;10400;53.198;6.592;2023-07-20T01:53:17;2.65;;;2.38;;
20482;SDS011;10400;53.198;6.592;2023-07-20T01:55:43;2.72;;;2.45;;
20482;SDS011;10400;53.198;6.592;2023-07-20T01:58:09;2.60;;;2.40;;
20482;SDS011;10400;53.198;6.592;2023-07-20T02:00:36;4.07;;;2.50;;
20482;SDS011;10400;53.198;6.592;2023-07-20T02:03:02;5.10;;;2.60;;
20482;SDS011;10400;53.198;6.592;2023-07-20T02:05:28;2.60;;;2.40;;
20482;SDS011;10400;53.198;6.592;2023-07-20T02:07:54;2.97;;;2.67;;
20482;SDS011;10400;53.198;6.592;2023-07-20T02:10:19;3.45;;;2.75;;
20482;SDS011;10400;53.198;6.592;2023-07-20T02:12:45;3.15;;;2.47;;
20482;SDS011;10400;53.198;6.592;2023-07-20T02:15:11;3.35;;;2.80;;
20482;SDS011;10400;53.198;6.592;2023-07-20T02:17:38;3.47;;;3.00;;
20482;SDS011;10400;53.198;6.592;2023-07-20T02:20:06;4.38;;;2.50;;
20482;SDS011;10400;53.198;6.592;2023-07-20T02:22:35;3.63;;;2.60;;
20482;SDS011;10400;53.198;6.592;2023-07-20T02:25:01;5.22;;;3.13;;
20482;SDS011;10400;53.198;6.592;2023-07-20T02:27:27;4.93;;;2.60;;
20482;SDS011;10400;53.198;6.592;2023-07-20T02:29:52;3.47;;;2.30;;
20482;SDS011;10400;53.198;6.592;2023-07-20T02:32:18;4.97;;;2.50;;
20482;SDS011;10400;53.198;6.592;2023-07-20T02:34:44;3.05;;;2.67;;
20482;SDS011;10400;53.198;6.592;2023-07-20T02:37:09;2.42;;;2.22;;
20482;SDS011;10400;53.198;6.592;2023-07-20T02:39:37;2.97;;;2.22;;
20482;SDS011;10400;53.198;6.592;2023-07-20T02:42:04;3.13;;;2.70;;
20482;SDS011;10400;53.198;6.592;2023-07-20T02:44:30;3.70;;;2.55;;
20482;SDS011;10400;53.198;6.592;2023-07-20T02:46:55;4.43;;;2.40;;
20482;SDS011;10400;53.198;6.592;2023-07-20T02:49:21;3.60;;;2.67;;
20482;SDS011;10400;53.198;6.592;2023-07-20T02:51:46;3.10;;;2.53;;
20482;SDS011;10400;53.198;6.592;2023-07-20T02:54:12;4.60;;;2.38;;
20482;SDS011;10400;53.198;6.592;2023-07-20T02:56:38;3.72;;;2.50;;
20482;SDS011;10400;53.198;6.592;2023-07-20T02:59:03;3.85;;;2.70;;
20482;SDS011;10400;53.198;6.592;2023-07-20T03:01:29;3.10;;;2.53;;
20482;SDS011;10400;53.198;6.592;2023-07-20T03:03:55;4.43;;;2.70;;
20482;SDS011;10400;53.198;6.592;2023-07-20T03:06:21;3.05;;;2.75;;
20482;SDS011;10400;53.198;6.592;2023-07-20T03:08:47;4.55;;;3.20;;
20482;SDS011;10400;53.198;6.592;2023-07-20T03:11:16;3.15;;;2.65;;
20482;SDS011;10400;53.198;6.592;2023-07-20T03:13:43;3.88;;;3.38;;
20482;SDS011;10400;53.198;6.592;2023-07-20T03:16:10;4.90;;;3.05;;
20482;SDS011;10400;53.198;6.592;2023-07-20T03:18:37;4.40;;;2.88;;
20482;SDS011;10400;53.198;6.592;2023-07-20T03:21:04;4.35;;;3.10;;
20482;SDS011;10400;53.198;6.592;2023-07-20T03:23:30;7.32;;;3.25;;
20482;SDS011;10400;53.198;6.592;2023-07-20T03:25:56;4.53;;;3.08;;
20482;SDS011;10400;53.198;6.592;2023-07-20T03:28:22;5.00;;;3.30;;
20482;SDS011;10400;53.198;6.592;2023-07-20T03:30:52;4.28;;;3.13;;
20482;SDS011;10400;53.198;6.592;2023-07-20T03:33:19;5.95;;;2.92;;
20482;SDS011;10400;53.198;6.592;2023-07-20T03:35:45;5.60;;;3.15;;
20482;SDS011;10400;53.198;6.592;2023-07-20T03:38:10;6.72;;;3.30;;
20482;SDS011;10400;53.198;6.592;2023-07-20T03:40:36;4.05;;;2.90;;
20482;SDS011;10400;53.198;6.592;2023-07-20T03:43:02;5.45;;;3.20;;
20482;SDS011;10400;53.198;6.592;2023-07-20T03:45:28;3.40;;;3.10;;
20482;SDS011;10400;53.198;6.592;2023-07-20T03:47:53;3.28;;;2.78;;
20482;SDS011;10400;53.198;6.592;2023-07-20T03:50:19;5.57;;;2.65;;
20482;SDS011;10400;53.198;6.592;2023-07-20T03:52:45;2.83;;;2.50;;
20482;SDS011;10400;53.198;6.592;2023-07-20T03:55:10;4.18;;;2.92;;
20482;SDS011;10400;53.198;6.592;2023-07-20T03:57:36;4.22;;;2.60;;
20482;SDS011;10400;53.198;6.592;2023-07-20T04:00:02;3.83;;;2.88;;
20482;SDS011;10400;53.198;6.592;2023-07-20T04:02:31;7.45;;;2.95;;
20482;SDS011;10400;53.198;6.592;2023-07-20T04:04:57;3.92;;;2.72;;
20482;SDS011;10400;53.198;6.592;2023-07-20T04:07:23;3.38;;;3.08;;
20482;SDS011;10400;53.198;6.592;2023-07-20T04:09:48;5.05;;;2.63;;
20482;SDS011;10400;53.198;6.592;2023-07-20T04:12:14;3.15;;;2.50;;
20482;SDS011;10400;53.198;6.592;2023-07-20T04:14:40;7.35;;;3.00;;
20482;SDS011;10400;53.198;6.592;2023-07-20T04:17:05;3.88;;;2.60;;
20482;SDS011;10400;53.198;6.592;2023-07-20T04:19:31;6.68;;;2.85;;
20482;SDS011;10400;53.198;6.592;2023-07-20T04:21:56;3.58;;;2.90;;
20482;SDS011;10400;53.198;6.592;2023-07-20T04:24:22;3.28;;;2.58;;
20482;SDS011;10400;53.198;6.592;2023-07-20T04:26:48;3.92;;;2.55;;
20482;SDS011;10400;53.198;6.592;2023-07-20T04:29:13;3.63;;;2.75;;
20482;SDS011;10400;53.198;6.592;2023-07-20T04:31:39;3.25;;;2.75;;
20482;SDS011;10400;53.198;6.592;2023-07-20T04:34:04;3.40;;;2.78;;
20482;SDS011;10400;53.198;6.592;2023-07-20T04:36:30;3.88;;;2.58;;
20482;SDS011;10400;53.198;6.592;2023-07-20T04:38:56;3.63;;;2.38;;
20482;SDS011;10400;53.198;6.592;2023-07-20T04:41:22;3.17;;;2.65;;
20482;SDS011;10400;53.198;6.592;2023-07-20T04:43:47;5.05;;;2.80;;
20482;SDS011;10400;53.198;6.592;2023-07-20T04:46:13;3.30;;;2.60;;
20482;SDS011;10400;53.198;6.592;2023-07-20T04:48:39;4.63;;;2.42;;
20482;SDS011;10400;53.198;6.592;2023-07-20T04:51:05;4.97;;;2.38;;
20482;SDS011;10400;53.198;6.592;2023-07-20T04:53:31;5.72;;;2.33;;
20482;SDS011;10400;53.198;6.592;2023-07-20T04:55:56;3.13;;;2.15;;
20482;SDS011;10400;53.198;6.592;2023-07-20T04:58:22;4.00;;;2.25;;
20482;SDS011;10400;53.198;6.592;2023-07-20T05:00:48;5.57;;;2.60;;
20482;SDS011;10400;53.198;6.592;2023-07-20T05:03:14;2.35;;;2.15;;
20482;SDS011;10400;53.198;6.592;2023-07-20T05:05:40;4.22;;;2.38;;
20482;SDS011;10400;53.198;6.592;2023-07-20T05:08:06;5.80;;;2.47;;
20482;SDS011;10400;53.198;6.592;2023-07-20T05:10:32;7.00;;;2.67;;
20482;SDS011;10400;53.198;6.592;2023-07-20T05:12:58;3.72;;;2.47;;
20482;SDS011;10400;53.198;6.592;2023-07-20T05:15:24;3.95;;;2.20;;
20482;SDS011;10400;53.198;6.592;2023-07-20T05:17:50;4.53;;;2.53;;
20482;SDS011;10400;53.198;6.592;2023-07-20T05:20:16;4.60;;;1.77;;
20482;SDS011;10400;53.198;6.592;2023-07-20T05:22:42;3.30;;;2.13;;
20482;SDS011;10400;53.198;6.592;2023-07-20T05:25:08;4.47;;;2.08;;
20482;SDS011;10400;53.198;6.592;2023-07-20T05:27:38;3.03;;;1.90;;
20482;SDS011;10400;53.198;6.592;2023-07-20T05:30:07;3.75;;;1.98;;
20482;SDS011;10400;53.198;6.592;2023-07-20T05:32:33;5.28;;;2.10;;
20482;SDS011;10400;53.198;6.592;2023-07-20T05:34:59;4.03;;;2.17;;
20482;SDS011;10400;53.198;6.592;2023-07-20T05:37:25;2.33;;;1.80;;
20482;SDS011;10400;53.198;6.592;2023-07-20T05:39:50;2.85;;;1.75;;
20482;SDS011;10400;53.198;6.592;2023-07-20T05:42:16;3.53;;;2.13;;
20482;SDS011;10400;53.198;6.592;2023-07-20T05:44:42;5.03;;;1.98;;
20482;SDS011;10400;53.198;6.592;2023-07-20T05:47:07;7.38;;;2.05;;
20482;SDS011;10400;53.198;6.592;2023-07-20T05:49:34;2.50;;;1.70;;
20482;SDS011;10400;53.198;6.592;2023-07-20T05:52:00;6.47;;;1.60;;
20482;SDS011;10400;53.198;6.592;2023-07-20T05:54:26;2.65;;;1.50;;
20482;SDS011;10400;53.198;6.592;2023-07-20T05:56:52;6.45;;;1.33;;
20482;SDS011;10400;53.198;6.592;2023-07-20T05:59:18;2.90;;;1.45;;
20482;SDS011;10400;53.198;6.592;2023-07-20T06:01:44;8.18;;;1.40;;
20482;SDS011;10400;53.198;6.592;2023-07-20T06:04:10;1.98;;;1.10;;
20482;SDS011;10400;53.198;6.592;2023-07-20T06:06:36;2.15;;;1.00;;
20482;SDS011;10400;53.198;6.592;2023-07-20T06:09:02;2.15;;;0.80;;
20482;SDS011;10400;53.198;6.592;2023-07-20T06:11:34;4.68;;;1.30;;
20482;SDS011;10400;53.198;6.592;2023-07-20T06:14:00;7.03;;;1.30;;
20482;SDS011;10400;53.198;6.592;2023-07-20T06:16:29;3.35;;;1.20;;
20482;SDS011;10400;53.198;6.592;2023-07-20T06:18:55;2.58;;;0.98;;
20482;SDS011;10400;53.198;6.592;2023-07-20T06:21:21;5.05;;;1.10;;
20482;SDS011;10400;53.198;6.592;2023-07-20T06:23:46;3.63;;;1.10;;
20482;SDS011;10400;53.198;6.592;2023-07-20T06:26:15;4.40;;;1.30;;
20482;SDS011;10400;53.198;6.592;2023-07-20T06:28:41;3.22;;;1.30;;
20482;SDS011;10400;53.198;6.592;2023-07-20T06:31:06;6.03;;;1.02;;
20482;SDS011;10400;53.198;6.592;2023-07-20T06:33:32;8.23;;;1.13;;
20482;SDS011;10400;53.198;6.592;2023-07-20T06:35:59;6.43;;;1.25;;
20482;SDS011;10400;53.198;6.592;2023-07-20T06:38:25;2.90;;;1.00;;
20482;SDS011;10400;53.198;6.592;2023-07-20T06:40:51;4.10;;;1.20;;
20482;SDS011;10400;53.198;6.592;2023-07-20T06:43:17;2.55;;;0.93;;
20482;SDS011;10400;53.198;6.592;2023-07-20T06:45:42;4.55;;;1.15;;
20482;SDS011;10400;53.198;6.592;2023-07-20T06:48:08;3.60;;;0.90;;
20482;SDS011;10400;53.198;6.592;2023-07-20T06:50:34;4.57;;;1.23;;
20482;SDS011;10400;53.198;6.592;2023-07-20T06:53:00;2.63;;;1.25;;
20482;SDS011;10400;53.198;6.592;2023-07-20T06:55:29;3.92;;;1.00;;
20482;SDS011;10400;53.198;6.592;2023-07-20T06:57:54;3.05;;;1.10;;
20482;SDS011;10400;53.198;6.592;2023-07-20T07:00:20;5.97;;;1.17;;
20482;SDS011;10400;53.198;6.592;2023-07-20T07:02:46;5.18;;;1.15;;
20482;SDS011;10400;53.198;6.592;2023-07-20T07:05:11;4.55;;;1.50;;
20482;SDS011;10400;53.198;6.592;2023-07-20T07:07:39;3.30;;;1.20;;
20482;SDS011;10400;53.198;6.592;2023-07-20T07:10:05;3.38;;;1.60;;
20482;SDS011;10400;53.198;6.592;2023-07-20T07:12:31;2.97;;;1.30;;
20482;SDS011;10400;53.198;6.592;2023-07-20T07:14:57;14.27;;;3.70;;
20482;SDS011;10400;53.198;6.592;2023-07-20T07:17:23;17.83;;;3.22;;
20482;SDS011;10400;53.198;6.592;2023-07-20T07:19:49;10.10;;;2.60;;
20482;SDS011;10400;53.198;6.592;2023-07-20T07:22:14;7.00;;;1.67;;
20482;SDS011;10400;53.198;6.592;2023-07-20T07:24:40;3.65;;;1.67;;
20482;SDS011;10400;53.198;6.592;2023-07-20T07:27:08;3.67;;;1.67;;
20482;SDS011;10400;53.198;6.592;2023-07-20T07:29:34;6.90;;;1.55;;
20482;SDS011;10400;53.198;6.592;2023-07-20T07:32:00;5.72;;;1.80;;
20482;SDS011;10400;53.198;6.592;2023-07-20T07:34:26;6.63;;;1.77;;
20482;SDS011;10400;53.198;6.592;2023-07-20T07:36:52;8.50;;;1.90;;
20482;SDS011;10400;53.198;6.592;2023-07-20T07:39:18;4.47;;;1.88;;
20482;SDS011;10400;53.198;6.592;2023-07-20T07:41:44;4.72;;;2.00;;
20482;SDS011;10400;53.198;6.592;2023-07-20T07:44:10;5.13;;;2.00;;
20482;SDS011;10400;53.198;6.592;2023-07-20T07:46:35;6.07;;;2.22;;
20482;SDS011;10400;53.198;6.592;2023-07-20T07:49:01;4.72;;;1.98;;
20482;SDS011;10400;53.198;6.592;2023-07-20T07:51:27;7.38;;;2.22;;
20482;SDS011;10400;53.198;6.592;2023-07-20T07:53:52;4.43;;;2.10;;
20482;SDS011;10400;53.198;6.592;2023-07-20T07:56:18;4.15;;;1.90;;
20482;SDS011;10400;53.198;6.592;2023-07-20T07:58:48;6.00;;;1.67;;
20482;SDS011;10400;53.198;6.592;2023-07-20T08:01:16;5.95;;;2.20;;
20482;SDS011;10400;53.198;6.592;2023-07-20T08:03:44;3.95;;;1.73;;
20482;SDS011;10400;53.198;6.592;2023-07-20T08:06:12;6.90;;;1.80;;
20482;SDS011;10400;53.198;6.592;2023-07-20T08:08:40;5.45;;;1.63;;
20482;SDS011;10400;53.198;6.592;2023-07-20T08:11:07;5.55;;;1.33;;
20482;SDS011;10400;53.198;6.592;2023-07-20T08:13:33;4.72;;;1.67;;
20482;SDS011;10400;53.198;6.592;2023-07-20T08:16:00;7.55;;;1.52;;
20482;SDS011;10400;53.198;6.592;2023-07-20T08:18:29;8.25;;;1.48;;
20482;SDS011;10400;53.198;6.592;2023-07-20T08:20:56;9.35;;;1.60;;
20482;SDS011;10400;53.198;6.592;2023-07-20T08:23:22;4.10;;;1.65;;
20482;SDS011;10400;53.198;6.592;2023-07-20T08:25:47;21.38;;;3.03;;
20482;SDS011;10400;53.198;6.592;2023-07-20T08:28:13;13.88;;;3.28;;
20482;SDS011;10400;53.198;6.592;2023-07-20T08:30:43;35.65;;;3.10;;
20482;SDS011;10400;53.198;6.592;2023-07-20T08:33:12;4.82;;;1.38;;
20482;SDS011;10400;53.198;6.592;2023-07-20T08:35:39;9.10;;;1.40;;
20482;SDS011;10400;53.198;6.592;2023-07-20T08:38:05;7.82;;;1.30;;
20482;SDS011;10400;53.198;6.592;2023-07-20T08:40:38;4.15;;;1.00;;
20482;SDS011;10400;53.198;6.592;2023-07-20T08:43:05;4.65;;;1.25;;
20482;SDS011;10400;53.198;6.592;2023-07-20T08:45:34;6.70;;;1.38;;
20482;SDS011;10400;53.198;6.592;2023-07-20T08:48:04;5.50;;;0.70;;
20482;SDS011;10400;53.198;6.592;2023-07-20T08:50:31;5.55;;;1.30;;
20482;SDS011;10400;53.198;6.592;2023-07-20T08:52:58;2.70;;;0.95;;
20482;SDS011;10400;53.198;6.592;2023-07-20T08:55:24;4.68;;;1.02;;
20482;SDS011;10400;53.198;6.592;2023-07-20T08:57:55;5.05;;;0.85;;
20482;SDS011;10400;53.198;6.592;2023-07-20T09:00:23;10.98;;;1.17;;
20482;SDS011;10400;53.198;6.592;2023-07-20T09:02:50;4.50;;;0.65;;
20482;SDS011;10400;53.198;6.592;2023-07-20T09:05:17;2.20;;;0.95;;
20482;SDS011;10400;53.198;6.592;2023-07-20T09:07:47;9.38;;;1.20;;
20482;SDS011;10400;53.198;6.592;2023-07-20T09:10:13;3.13;;;0.70;;
20482;SDS011;10400;53.198;6.592;2023-07-20T09:12:39;2.25;;;0.80;;
20482;SDS011;10400;53.198;6.592;2023-07-20T09:15:07;2.45;;;0.90;;
20482;SDS011;10400;53.198;6.592;2023-07-20T09:17:33;3.80;;;1.02;;
20482;SDS011;10400;53.198;6.592;2023-07-20T09:20:03;6.78;;;1.20;;
20482;SDS011;10400;53.198;6.592;2023-07-20T09:22:33;1.30;;;0.80;;
20482;SDS011;10400;53.198;6.592;2023-07-20T09:24:59;4.65;;;1.02;;
20482;SDS011;10400;53.198;6.592;2023-07-20T09:27:38;4.93;;;0.90;;
20482;SDS011;10400;53.198;6.592;2023-07-20T09:30:04;3.08;;;1.00;;
20482;SDS011;10400;53.198;6.592;2023-07-20T09:32:48;2.97;;;0.90;;
20482;SDS011;10400;53.198;6.592;2023-07-20T09:35:19;2.05;;;0.65;;
20482;SDS011;10400;53.198;6.592;2023-07-20T09:37:46;1.85;;;0.80;;
20482;SDS011;10400;53.198;6.592;2023-07-20T09:40:17;3.80;;;1.10;;
20482;SDS011;10400;53.198;6.592;2023-07-20T09:42:43;1.67;;;0.70;;
20482;SDS011;10400;53.198;6.592;2023-07-20T09:45:10;4.85;;;0.90;;
20482;SDS011;10400;53.198;6.592;2023-07-20T09:47:36;7.68;;;0.73;;
20482;SDS011;10400;53.198;6.592;2023-07-20T09:50:03;5.28;;;0.60;;
20482;SDS011;10400;53.198;6.592;2023-07-20T09:52:30;3.10;;;0.80;;
20482;SDS011;10400;53.198;6.592;2023-07-20T09:54:56;4.20;;;0.82;;
20482;SDS011;10400;53.198;6.592;2023-07-20T09:57:23;3.47;;;1.00;;
20482;SDS011;10400;53.198;6.592;2023-07-20T09:59:51;2.85;;;1.25;;
20482;SDS011;10400;53.198;6.592;2023-07-20T10:02:21;7.07;;;1.00;;
20482;SDS011;10400;53.198;6.592;2023-07-20T10:04:58;2.97;;;0.70;;
20482;SDS011;10400;53.198;6.592;2023-07-20T10:07:28;4.35;;;0.95;;
20482;SDS011;10400;53.198;6.592;2023-07-20T10:09:55;4.70;;;0.90;;
20482;SDS011;10400;53.198;6.592;2023-07-20T10:12:24;4.85;;;0.95;;
20482;SDS011;10400;53.198;6.592;2023-07-20T10:14:54;4.63;;;0.70;;
20482;SDS011;10400;53.198;6.592;2023-07-20T10:18:09;2.92;;;0.82;;
20482;SDS011;10400;53.198;6.592;2023-07-20T10:20:56;2.33;;;0.75;;
20482;SDS011;10400;53.198;6.592;2023-07-20T10:23:26;2.83;;;0.95;;
20482;SDS011;10400;53.198;6.592;2023-07-20T10:25:54;5.18;;;1.00;;
20482;SDS011;10400;53.198;6.592;2023-07-20T10:28:22;4.97;;;0.93;;
20482;SDS011;10400;53.198;6.592;2023-07-20T10:30:49;4.43;;;1.00;;
20482;SDS011;10400;53.198;6.592;2023-07-20T10:33:16;5.32;;;1.00;;
20482;SDS011;10400;53.198;6.592;2023-07-20T10:35:56;2.05;;;0.70;;
20482;SDS011;10400;53.198;6.592;2023-07-20T10:38:38;2.67;;;0.77;;
20482;SDS011;10400;53.198;6.592;2023-07-20T10:41:04;2.53;;;0.73;;
20482;SDS011;10400;53.198;6.592;2023-07-20T10:43:44;4.32;;;0.90;;
20482;SDS011;10400;53.198;6.592;2023-07-20T10:46:11;5.05;;;1.10;;
20482;SDS011;10400;53.198;6.592;2023-07-20T10:48:58;3.70;;;0.88;;
20482;SDS011;10400;53.198;6.592;2023-07-20T10:51:27;3.17;;;0.80;;
20482;SDS011;10400;53.198;6.592;2023-07-20T10:53:54;3.75;;;0.93;;
20482;SDS011;10400;53.198;6.592;2023-07-20T10:56:24;2.22;;;1.00;;
20482;SDS011;10400;53.198;6.592;2023-07-20T10:58:59;2.70;;;1.08;;
20482;SDS011;10400;53.198;6.592;2023-07-20T11:01:29;4.45;;;0.95;;
20482;SDS011;10400;53.198;6.592;2023-07-20T11:03:59;3.53;;;0.90;;
20482;SDS011;10400;53.198;6.592;2023-07-20T11:11:30;5.88;;;1.00;;
20482;SDS011;10400;53.198;6.592;2023-07-20T11:14:00;3.50;;;0.82;;
20482;SDS011;10400;53.198;6.592;2023-07-20T11:16:46;2.47;;;0.80;;
20482;SDS011;10400;53.198;6.592;2023-07-20T11:21:52;1.48;;;0.80;;
20482;SDS011;10400;53.198;6.592;2023-07-20T11:24:19;2.60;;;0.70;;
20482;SDS011;10400;53.198;6.592;2023-07-20T11:26:45;4.90;;;0.75;;
20482;SDS011;10400;53.198;6.592;2023-07-20T11:29:13;2.78;;;1.00;;
20482;SDS011;10400;53.198;6.592;2023-07-20T11:31:40;4.22;;;0.93;;
20482;SDS011;10400;53.198;6.592;2023-07-20T11:34:09;4.80;;;1.23;;
20482;SDS011;10400;53.198;6.592;2023-07-20T11:36:37;5.45;;;1.08;;
20482;SDS011;10400;53.198;6.592;2023-07-20T11:39:05;3.83;;;1.00;;
20482;SDS011;10400;53.198;6.592;2023-07-20T11:41:32;8.13;;;1.00;;
20482;SDS011;10400;53.198;6.592;2023-07-20T11:43:58;1.98;;;0.90;;
20482;SDS011;10400;53.198;6.592;2023-07-20T11:46:24;2.53;;;0.90;;
20482;SDS011;10400;53.198;6.592;2023-07-20T11:48:54;4.18;;;0.90;;
20482;SDS011;10400;53.198;6.592;2023-07-20T11:51:21;6.97;;;0.88;;
20482;SDS011;10400;53.198;6.592;2023-07-20T11:53:49;3.47;;;0.90;;
20482;SDS011;10400;53.198;6.592;2023-07-20T11:56:14;4.78;;;0.85;;
20482;SDS011;10400;53.198;6.592;2023-07-20T11:58:43;2.75;;;0.80;;
20482;SDS011;10400;53.198;6.592;2023-07-20T12:01:10;3.13;;;0.93;;
20482;SDS011;10400;53.198;6.592;2023-07-20T12:03:36;5.72;;;0.80;;
20482;SDS011;10400;53.198;6.592;2023-07-20T12:06:08;3.10;;;0.85;;
20482;SDS011;10400;53.198;6.592;2023-07-20T12:08:37;3.67;;;0.80;;
20482;SDS011;10400;53.198;6.592;2023-07-20T12:11:04;2.03;;;0.88;;
20482;SDS011;10400;53.198;6.592;2023-07-20T12:13:43;3.95;;;0.77;;
20482;SDS011;10400;53.198;6.592;2023-07-20T12:16:15;3.75;;;1.17;;
20482;SDS011;10400;53.198;6.592;2023-07-20T12:18:42;5.32;;;1.17;;
20482;SDS011;10400;53.198;6.592;2023-07-20T12:21:08;4.97;;;0.90;;
20482;SDS011;10400;53.198;6.592;2023-07-20T12:23:35;8.35;;;0.90;;
20482;SDS011;10400;53.198;6.592;2023-07-20T12:26:08;3.20;;;0.80;;
20482;SDS011;10400;53.198;6.592;2023-07-20T12:28:40;1.58;;;0.80;;
20482;SDS011;10400;53.198;6.592;2023-07-20T12:31:10;2.80;;;0.88;;
20482;SDS011;10400;53.198;6.592;2023-07-20T12:33:36;4.20;;;1.00;;
20482;SDS011;10400;53.198;6.592;2023-07-20T12:36:03;5.07;;;0.73;;
20482;SDS011;10400;53.198;6.592;2023-07-20T12:38:29;3.10;;;0.65;;
20482;SDS011;10400;53.198;6.592;2023-07-20T12:40:59;3.75;;;0.90;;
20482;SDS011;10400;53.198;6.592;2023-07-20T12:43:26;0.80;;;0.50;;
20482;SDS011;10400;53.198;6.592;2023-07-20T12:45:51;2.50;;;0.80;;
20482;SDS011;10400;53.198;6.592;2023-07-20T12:48:17;4.15;;;0.95;;
20482;SDS011;10400;53.198;6.592;2023-07-20T12:50:43;3.25;;;0.90;;
20482;SDS011;10400;53.198;6.592;2023-07-20T12:53:09;5.43;;;0.80;;
20482;SDS011;10400;53.198;6.592;2023-07-20T12:55:34;3.17;;;1.10;;
20482;SDS011;10400;53.198;6.592;2023-07-20T12:58:00;5.55;;;1.35;;
20482;SDS011;10400;53.198;6.592;2023-07-20T13:00:26;3.47;;;1.10;;
20482;SDS011;10400;53.198;6.592;2023-07-20T13:02:52;1.65;;;0.70;;
20482;SDS011;10400;53.198;6.592;2023-07-20T13:05:17;3.25;;;0.80;;
20482;SDS011;10400;53.198;6.592;2023-07-20T13:07:43;2.78;;;0.90;;
20482;SDS011;10400;53.198;6.592;2023-07-20T13:10:09;2.38;;;1.15;;
20482;SDS011;10400;53.198;6.592;2023-07-20T13:12:36;3.20;;;0.90;;
20482;SDS011;10400;53.198;6.592;2023-07-20T13:15:02;4.15;;;1.13;;
20482;SDS011;10400;53.198;6.592;2023-07-20T13:17:36;4.38;;;1.00;;
20482;SDS011;10400;53.198;6.592;2023-07-20T13:20:02;3.22;;;1.00;;
20482;SDS011;10400;53.198;6.592;2023-07-20T13:22:32;1.50;;;0.70;;
20482;SDS011;10400;53.198;6.592;2023-07-20T13:25:05;3.28;;;0.85;;
20482;SDS011;10400;53.198;6.592;2023-07-20T13:27:31;1.80;;;0.80;;
20482;SDS011;10400;53.198;6.592;2023-07-20T13:29:58;5.68;;;1.35;;
20482;SDS011;10400;53.198;6.592;2023-07-20T13:32:25;5.88;;;0.90;;
20482;SDS011;10400;53.198;6.592;2023-07-20T13:34:51;2.47;;;0.80;;
20482;SDS011;10400;53.198;6.592;2023-07-20T13:37:17;1.92;;;0.93;;
20482;SDS011;10400;53.198;6.592;2023-07-20T13:39:42;2.65;;;0.73;;
20482;SDS011;10400;53.198;6.592;2023-07-20T13:42:08;4.60;;;1.15;;
20482;SDS011;10400;53.198;6.592;2023-07-20T13:44:36;3.50;;;0.93;;
20482;SDS011;10400;53.198;6.592;2023-07-20T13:47:02;2.60;;;1.08;;
20482;SDS011;10400;53.198;6.592;2023-07-20T13:49:30;2.58;;;1.00;;
20482;SDS011;10400;53.198;6.592;2023-07-20T13:51:57;2.05;;;0.90;;
20482;SDS011;10400;53.198;6.592;2023-07-20T13:54:26;7.32;;;0.90;;
20482;SDS011;10400;53.198;6.592;2023-07-20T13:56:51;5.10;;;0.88;;
20482;SDS011;10400;53.198;6.592;2023-07-20T13:59:17;2.47;;;0.80;;
20482;SDS011;10400;53.198;6.592;2023-07-20T14:01:43;5.50;;;0.90;;
20482;SDS011;10400;53.198;6.592;2023-07-20T14:04:09;3.35;;;1.02;;
20482;SDS011;10400;53.198;6.592;2023-07-20T14:06:34;4.15;;;0.70;;
20482;SDS011;10400;53.198;6.592;2023-07-20T14:09:01;3.53;;;0.95;;
20482;SDS011;10400;53.198;6.592;2023-07-20T14:11:28;3.67;;;0.90;;
20482;SDS011;10400;53.198;6.592;2023-07-20T14:13:54;2.03;;;0.80;;
20482;SDS011;10400;53.198;6.592;2023-07-20T14:16:20;1.13;;;0.70;;
20482;SDS011;10400;53.198;6.592;2023-07-20T14:18:46;2.15;;;0.95;;
20482;SDS011;10400;53.198;6.592;2023-07-20T14:21:13;2.80;;;0.70;;
20482;SDS011;10400;53.198;6.592;2023-07-20T14:23:50;2.45;;;0.80;;
20482;SDS011;10400;53.198;6.592;2023-07-20T14:26:16;3.70;;;0.95;;
20482;SDS011;10400;53.198;6.592;2023-07-20T14:28:42;3.88;;;1.08;;
20482;SDS011;10400;53.198;6.592;2023-07-20T14:31:08;5.13;;;1.17;;
20482;SDS011;10400;53.198;6.592;2023-07-20T14:33:33;5.57;;;1.10;;
20482;SDS011;10400;53.198;6.592;2023-07-20T14:36:00;1.48;;;0.70;;
20482;SDS011;10400;53.198;6.592;2023-07-20T14:38:27;5.35;;;0.88;;
20482;SDS011;10400;53.198;6.592;2023-07-20T14:40:53;6.82;;;1.33;;
20482;SDS011;10400;53.198;6.592;2023-07-20T14:43:19;3.50;;;1.00;;
20482;SDS011;10400;53.198;6.592;2023-07-20T14:45:45;3.80;;;1.10;;
20482;SDS011;10400;53.198;6.592;2023-07-20T14:48:11;2.25;;;0.85;;
20482;SDS011;10400;53.198;6.592;2023-07-20T14:50:37;2.00;;;1.05;;
20482;SDS011;10400;53.198;6.592;2023-07-20T14:53:03;3.30;;;0.70;;
20482;SDS011;10400;53.198;6.592;2023-07-20T14:55:28;3.65;;;1.08;;
20482;SDS011;10400;53.198;6.592;2023-07-20T14:57:54;3.50;;;0.93;;
20482;SDS011;10400;53.198;6.592;2023-07-20T15:00:20;3.47;;;1.00;;
20482;SDS011;10400;53.198;6.592;2023-07-20T15:02:45;3.88;;;1.10;;
20482;SDS011;10400;53.198;6.592;2023-07-20T15:05:11;5.18;;;1.45;;